createdAt,value
2023-04-07T00:01:24.083Z,29.02
2023-04-07T00:03:54.585Z,30.73
2023-04-07T00:06:25.203Z,30.20
2023-04-07T00:08:55.713Z,30.00
2023-04-07T00:11:25.954Z,29.08
2023-04-07T00:13:56.467Z,29.55
2023-04-07T00:16:27.423Z,29.73
2023-04-07T00:19:06.650Z,29.98
2023-04-07T00:21:42.094Z,30.80
2023-04-07T00:24:14.429Z,31.75
2023-04-07T00:27:13.938Z,30.60
2023-04-07T00:29:46.238Z,31.40
2023-04-07T00:32:16.631Z,30.67
2023-04-07T00:34:46.968Z,29.47
2023-04-07T00:37:17.209Z,30.90
2023-04-07T00:39:49.166Z,30.70
2023-04-07T00:42:19.520Z,30.05
2023-04-07T00:44:49.967Z,29.60
2023-04-07T00:47:20.416Z,30.60
2023-04-07T00:49:50.975Z,30.42
2023-04-07T00:52:29.681Z,30.55
2023-04-07T00:55:02.048Z,29.35
2023-04-07T00:57:32.424Z,29.13
2023-04-07T01:00:02.994Z,29.47
2023-04-07T01:02:44.839Z,28.00
2023-04-07T01:05:20.095Z,28.65
2023-04-07T01:08:03.776Z,30.02
2023-04-07T01:10:55.795Z,29.20
2023-04-07T01:13:27.736Z,29.02
2023-04-07T01:16:12.358Z,31.05
2023-04-07T01:18:51.165Z,30.50
2023-04-07T01:21:22.369Z,27.58
2023-04-07T01:26:42.015Z,29.55
2023-04-07T01:29:39.861Z,29.08
2023-04-07T01:32:14.314Z,30.80
2023-04-07T01:34:45.118Z,31.48
2023-04-07T01:37:16.491Z,29.25
2023-04-07T01:39:47.298Z,30.13
2023-04-07T01:42:19.503Z,30.55
2023-04-07T01:44:50.947Z,30.17
2023-04-07T01:47:22.063Z,30.33
2023-04-07T01:49:53.959Z,29.02
2023-04-07T01:52:24.820Z,28.98
2023-04-07T01:54:57.665Z,29.10
2023-04-07T01:57:29.372Z,29.55
2023-04-07T02:00:04.834Z,28.92
2023-04-07T02:02:49.339Z,30.48
2023-04-07T02:05:23.577Z,29.58
2023-04-07T02:08:02.370Z,31.40
2023-04-07T02:10:37.972Z,29.77
2023-04-07T02:13:11.370Z,31.75
2023-04-07T02:15:43.967Z,29.90
2023-04-07T02:18:17.377Z,28.70
2023-04-07T02:20:48.749Z,31.63
2023-04-07T02:23:19.748Z,30.58
2023-04-07T02:25:49.890Z,31.23
2023-04-07T02:28:20.245Z,30.43
2023-04-07T02:30:50.410Z,31.00
2023-04-07T02:33:20.529Z,31.00
2023-04-07T02:35:50.908Z,30.35
2023-04-07T02:38:20.996Z,30.73
2023-04-07T02:40:51.093Z,32.83
2023-04-07T02:43:23.156Z,31.42
2023-04-07T02:45:54.749Z,31.85
2023-04-07T02:48:26.534Z,30.23
2023-04-07T02:50:56.989Z,30.95
2023-04-07T02:53:27.268Z,30.77
2023-04-07T02:55:57.618Z,30.57
2023-04-07T02:58:27.951Z,32.88
2023-04-07T03:00:58.091Z,30.85
2023-04-07T03:03:31.873Z,32.75
2023-04-07T03:06:14.025Z,31.08
2023-04-07T03:09:04.199Z,31.02
2023-04-07T03:11:34.413Z,31.48
2023-04-07T03:14:04.465Z,32.80
2023-04-07T03:16:35.890Z,32.70
2023-04-07T03:19:14.960Z,32.78
2023-04-07T03:21:53.801Z,33.35
2023-04-07T03:24:24.036Z,33.83
2023-04-07T03:26:54.460Z,32.33
2023-04-07T03:29:38.708Z,34.58
2023-04-07T03:32:11.391Z,34.35
2023-04-07T03:34:41.669Z,37.95
2023-04-07T03:37:12.001Z,36.53
2023-04-07T03:39:43.434Z,40.10
2023-04-07T03:42:36.198Z,37.10
2023-04-07T03:45:10.136Z,40.03
2023-04-07T03:47:45.186Z,39.60
2023-04-07T03:50:15.759Z,39.00
2023-04-07T03:53:11.877Z,38.50
2023-04-07T03:55:42.319Z,36.90
2023-04-07T03:58:21.864Z,38.28
2023-04-07T04:00:52.639Z,38.28
2023-04-07T04:03:23.092Z,36.93
2023-04-07T04:06:08.169Z,39.38
2023-04-07T04:08:38.362Z,39.75
2023-04-07T04:11:09.001Z,38.03
2023-04-07T04:13:47.228Z,38.40
2023-04-07T04:16:17.852Z,38.58
2023-04-07T04:18:50.155Z,38.90
2023-04-07T04:21:20.950Z,36.77
2023-04-07T04:23:51.382Z,37.87
2023-04-07T04:26:21.775Z,38.77
2023-04-07T04:28:51.946Z,36.97
2023-04-07T04:31:24.151Z,37.08
2023-04-07T04:33:55.072Z,37.97
2023-04-07T04:36:27.214Z,36.05
2023-04-07T04:39:02.073Z,35.97
2023-04-07T04:41:32.832Z,36.13
2023-04-07T04:46:35.026Z,36.80
2023-04-07T04:49:05.550Z,35.80
2023-04-07T04:51:37.398Z,34.00
2023-04-07T04:54:15.515Z,36.10
2023-04-07T04:59:16.473Z,34.83
2023-04-07T05:01:57.056Z,34.40
2023-04-07T05:04:27.473Z,33.08
2023-04-07T05:07:04.928Z,34.03
2023-04-07T05:09:35.744Z,34.00
2023-04-07T05:12:06.213Z,33.30
2023-04-07T05:14:41.803Z,32.38
2023-04-07T05:17:12.452Z,32.95
2023-04-07T05:19:42.821Z,31.90
2023-04-07T05:22:25.859Z,30.42
2023-04-07T05:24:56.064Z,32.45
2023-04-07T05:27:26.356Z,31.85
2023-04-07T05:30:01.385Z,33.55
2023-04-07T05:32:35.777Z,32.50
2023-04-07T05:35:13.018Z,30.80
2023-04-07T05:37:51.432Z,32.70
2023-04-07T05:40:21.833Z,32.33
2023-04-07T05:42:53.224Z,33.28
2023-04-07T05:45:24.050Z,32.45
2023-04-07T05:47:54.342Z,31.40
2023-04-07T05:50:30.511Z,31.67
2023-04-07T05:53:04.177Z,30.50
2023-04-07T05:55:34.765Z,30.87
2023-04-07T06:00:36.914Z,31.53
2023-04-07T06:03:15.013Z,30.25
2023-04-07T06:05:58.810Z,31.00
2023-04-07T06:08:29.681Z,29.77
2023-04-07T06:10:59.941Z,27.50
2023-04-07T06:13:30.316Z,28.30
2023-04-07T06:16:00.592Z,27.83
2023-04-07T06:18:30.781Z,27.70
2023-04-07T06:21:02.310Z,27.33
2023-04-07T06:23:32.534Z,26.33
2023-04-07T06:26:02.771Z,26.85
2023-04-07T06:28:33.194Z,27.07
2023-04-07T06:31:03.548Z,25.30
2023-04-07T06:33:33.948Z,25.60
2023-04-07T06:36:04.510Z,27.10
2023-04-07T06:38:35.092Z,25.05
2023-04-07T06:41:05.513Z,24.97
2023-04-07T06:43:36.021Z,25.97
2023-04-07T06:46:07.745Z,24.92
2023-04-07T06:48:38.086Z,25.60
2023-04-07T06:51:08.242Z,23.55
2023-04-07T06:53:38.878Z,23.75
2023-04-07T06:56:14.291Z,20.97
2023-04-07T06:58:44.556Z,21.60
2023-04-07T07:01:14.626Z,24.05
2023-04-07T07:03:44.928Z,22.20
2023-04-07T07:06:16.099Z,23.27
2023-04-07T07:11:16.037Z,22.38
2023-04-07T07:13:47.793Z,21.47
2023-04-07T07:16:18.433Z,22.75
2023-04-07T07:18:48.634Z,19.23
2023-04-07T07:21:19.688Z,19.15
2023-04-07T07:26:20.373Z,19.63
2023-04-07T07:28:50.693Z,17.93
2023-04-07T07:31:21.110Z,19.00
2023-04-07T07:33:53.811Z,19.25
2023-04-07T07:36:24.067Z,19.25
2023-04-07T07:38:54.508Z,18.07
2023-04-07T07:41:24.705Z,16.05
2023-04-07T07:43:55.347Z,17.55
2023-04-07T07:46:28.257Z,16.50
2023-04-07T07:48:58.631Z,18.23
2023-04-07T07:51:30.464Z,17.87
2023-04-07T07:54:00.718Z,16.67
2023-04-07T07:56:31.199Z,16.20
2023-04-07T07:59:01.577Z,16.87
2023-04-07T08:01:31.853Z,15.40
2023-04-07T08:04:02.038Z,15.38
2023-04-07T08:06:33.813Z,15.82
2023-04-07T08:09:04.024Z,15.75
2023-04-07T08:11:34.222Z,15.50
2023-04-07T08:14:04.340Z,15.88
2023-04-07T08:16:34.536Z,16.35
2023-04-07T08:19:04.806Z,16.77
2023-04-07T08:21:35.183Z,15.93
2023-04-07T08:24:05.396Z,17.27
2023-04-07T08:26:36.141Z,17.95
2023-04-07T08:29:06.374Z,17.65
2023-04-07T08:31:36.852Z,17.00
2023-04-07T08:34:06.998Z,17.67
2023-04-07T08:36:37.245Z,16.88
2023-04-07T08:39:08.063Z,17.85
2023-04-07T08:41:43.786Z,17.63
2023-04-07T08:44:15.685Z,17.83
2023-04-07T08:46:47.264Z,16.58
2023-04-07T08:49:20.397Z,18.25
2023-04-07T08:51:51.056Z,17.15
2023-04-07T08:54:23.972Z,17.00
2023-04-07T08:56:55.109Z,17.02
2023-04-07T09:01:59.714Z,18.08
2023-04-07T09:04:30.193Z,18.27
2023-04-07T09:07:00.488Z,17.87
2023-04-07T09:09:30.800Z,16.95
2023-04-07T09:12:01.254Z,17.35
2023-04-07T09:14:31.503Z,18.47
2023-04-07T09:17:02.769Z,18.50
2023-04-07T09:22:03.566Z,18.45
2023-04-07T09:24:36.814Z,17.92
2023-04-07T09:27:21.746Z,17.30
2023-04-07T09:29:51.985Z,15.98
2023-04-07T09:32:49.828Z,17.97
2023-04-07T09:35:20.076Z,17.05
2023-04-07T09:38:11.031Z,16.70
2023-04-07T09:40:41.320Z,17.60
2023-04-07T09:43:21.581Z,15.30
2023-04-07T09:45:51.854Z,17.35
2023-04-07T09:48:24.228Z,16.03
2023-04-07T09:50:54.477Z,17.27
2023-04-07T09:53:44.271Z,16.77
2023-04-07T09:56:14.632Z,16.92
2023-04-07T09:58:47.726Z,17.50
2023-04-07T10:01:19.891Z,16.20
2023-04-07T10:03:53.113Z,16.45
2023-04-07T10:06:24.096Z,17.33
2023-04-07T10:08:54.739Z,16.25
2023-04-07T10:11:25.017Z,16.17
2023-04-07T10:13:56.101Z,16.27
2023-04-07T10:16:27.364Z,16.20
2023-04-07T10:18:58.710Z,16.13
2023-04-07T10:24:25.544Z,16.38
2023-04-07T10:27:06.722Z,15.20
2023-04-07T10:32:13.509Z,15.30
2023-04-07T10:34:53.140Z,15.70
2023-04-07T10:37:24.841Z,16.05
2023-04-07T10:40:23.995Z,15.52
2023-04-07T10:42:54.339Z,15.65
2023-04-07T10:45:54.652Z,15.33
2023-04-07T10:48:25.698Z,15.23
2023-04-07T10:51:17.542Z,16.00
2023-04-07T10:54:26.280Z,15.20
2023-04-07T10:57:06.842Z,15.45
2023-04-07T10:59:37.262Z,15.30
2023-04-07T11:02:16.910Z,15.40
2023-04-07T11:04:49.106Z,15.90
2023-04-07T11:07:22.232Z,15.65
2023-04-07T11:09:52.430Z,15.80
2023-04-07T11:12:26.982Z,16.30
2023-04-07T11:14:57.138Z,15.38
2023-04-07T11:17:27.427Z,16.70
2023-04-07T11:19:58.532Z,17.05
2023-04-07T11:22:30.550Z,17.75
2023-04-07T11:25:01.047Z,15.98
2023-04-07T11:27:32.490Z,14.43
2023-04-07T11:32:33.917Z,16.37
2023-04-07T11:35:04.266Z,16.53
2023-04-07T11:37:35.089Z,14.93
2023-04-07T11:40:05.625Z,14.43
2023-04-07T11:42:40.836Z,15.85
2023-04-07T11:45:22.994Z,16.05
2023-04-07T11:47:53.376Z,13.93
2023-04-07T11:50:44.251Z,13.93
2023-04-07T11:53:14.669Z,14.30
2023-04-07T11:55:44.821Z,13.50
2023-04-07T11:58:15.254Z,13.07
2023-04-07T12:00:59.570Z,12.93
2023-04-07T12:03:30.012Z,13.57
2023-04-07T12:06:00.595Z,12.77
2023-04-07T12:08:45.040Z,14.43
2023-04-07T12:11:15.610Z,12.75
2023-04-07T12:13:45.849Z,13.10
2023-04-07T12:16:16.313Z,13.03
2023-04-07T12:18:46.602Z,11.48
2023-04-07T12:21:17.059Z,12.63
2023-04-07T12:23:48.790Z,12.43
2023-04-07T12:26:20.567Z,12.30
2023-04-07T12:28:51.966Z,12.52
2023-04-07T12:31:22.173Z,11.43
2023-04-07T12:33:52.483Z,12.20
2023-04-07T12:36:23.443Z,11.52
2023-04-07T12:38:53.516Z,11.82
2023-04-07T12:41:23.578Z,12.90
2023-04-07T12:43:53.982Z,12.32
2023-04-07T12:46:24.485Z,12.32
2023-04-07T12:48:54.765Z,12.10
2023-04-07T12:51:25.064Z,12.93
2023-04-07T12:53:56.492Z,12.47
2023-04-07T12:56:26.643Z,12.00
2023-04-07T12:58:57.048Z,12.35
2023-04-07T13:01:27.402Z,12.07
2023-04-07T13:03:58.753Z,12.27
2023-04-07T13:06:29.099Z,11.13
2023-04-07T13:08:59.337Z,11.82
2023-04-07T13:11:29.680Z,11.18
2023-04-07T13:14:01.278Z,12.07
2023-04-07T13:16:31.929Z,12.25
2023-04-07T13:19:05.360Z,11.97
2023-04-07T13:21:46.665Z,11.80
2023-04-07T13:24:17.971Z,11.20
2023-04-07T13:26:48.034Z,11.55
2023-04-07T13:29:19.371Z,12.23
2023-04-07T13:34:19.545Z,11.18
2023-04-07T13:36:49.761Z,11.50
2023-04-07T13:39:19.951Z,11.23
2023-04-07T13:41:50.178Z,10.23
2023-04-07T13:44:21.195Z,10.40
2023-04-07T13:46:51.347Z,9.95
2023-04-07T13:49:22.059Z,10.02
2023-04-07T13:51:52.638Z,9.52
2023-04-07T13:54:23.031Z,9.50
2023-04-07T13:56:53.844Z,9.88
2023-04-07T13:59:25.201Z,9.68
2023-04-07T14:04:25.371Z,9.80
2023-04-07T14:06:56.389Z,9.60
2023-04-07T14:09:26.576Z,9.65
2023-04-07T14:11:56.735Z,9.32
2023-04-07T14:14:27.263Z,9.23
2023-04-07T14:19:07.094Z,9.75
2023-04-07T14:21:37.255Z,9.40
2023-04-07T14:24:07.316Z,8.85
2023-04-07T14:26:37.412Z,9.10
2023-04-07T14:29:07.422Z,9.60
2023-04-07T14:31:37.779Z,9.63
2023-04-07T14:34:09.672Z,8.88
2023-04-07T14:36:40.066Z,9.27
2023-04-07T14:39:11.220Z,10.57
2023-04-07T14:41:41.433Z,9.52
2023-04-07T14:44:11.643Z,9.30
2023-04-07T14:46:41.779Z,9.40
2023-04-07T14:49:12.706Z,8.43
2023-04-07T14:51:42.974Z,9.60
2023-04-07T14:54:13.088Z,9.63
2023-04-07T14:56:43.681Z,10.10
2023-04-07T14:59:13.881Z,9.85
2023-04-07T15:01:44.225Z,10.25
2023-04-07T15:04:14.744Z,9.77
2023-04-07T15:06:47.298Z,10.53
2023-04-07T15:09:17.887Z,10.88
2023-04-07T15:11:51.068Z,9.97
2023-04-07T15:14:21.667Z,10.30
2023-04-07T15:16:52.912Z,10.05
